Maresias, Brazil
Current Conditions -  °F | °C
As of 12:00 AM on Wednesday 22 Oct 2014 (Local Time) from SBSJ Reporting Station
Few Clouds Few Clouds  
Wind Chill: 66°   Ceiling: Unl
Heat Index: 66°   Visibility: 6mi
Dew Point: 50°   Wind: 2mph
Humidity: 56%   Direction: 130°SE
Pressure: 30.18"   Gusts: NA
Location:  23.8°S, 45.55°W
Report Text: SBSJ 220200Z 13002KT 9999 FEW045 19/10 Q1022
Loading
Personal Weather Stations






























Interactive Weather Map
Tropical Storm Tracking
New forecast layout! Learn more

10-Day Weather Forecast

Advertisements
Track Severe Weather on mobile